Time;durP1;ratioP1;P1;durP2;ratioP2;P2;SDS_P1;SDS_P2;PMS_P1;PMS_P2;Temp;Humidity;BMP_temperature;BMP_pressure;BME280_temperature;BME280_humidity;BME280_pressure;Samples;Min_cycle;Max_cycle;Signal;HPM_P1;HPM_P2
2023/04/13 00:01:26;;;;;;;;;;;5.90;25.20;;;;;;5074239;28;19987;-77
2023/04/13 00:03:52;;;;;;;;;;;5.90;20.20;;;;;;5073755;28;19919;-76
2023/04/13 00:06:21;;;;;;;;;;;6.00;17.90;;;;;;5070067;28;19904;-77
2023/04/13 00:08:53;;;;;;;;;;;6.00;14.90;;;;;;5074794;28;19912;-77
2023/04/13 00:11:19;;;;;;;;;;;5.90;13.60;;;;;;5074735;28;19911;-76
2023/04/13 00:13:46;;;;;;;;;;;6.00;10.70;;;;;;5056242;28;19904;-76
2023/04/13 00:16:20;;;;;;;;;;;6.00;7.60;;;;;;5074470;28;19911;-76
2023/04/13 00:18:55;;;;;;;;;;;6.00;3.40;;;;;;5074595;28;20529;-77
2023/04/13 00:21:26;;;;;;;;;;;5.90;3.30;;;;;;5055218;28;19950;-80
2023/04/13 00:24:19;;;;;;;;;;;5.90;3.60;;;;;;5074041;28;19958;-79
2023/04/13 00:26:50;;;;;;;;;;;6.00;1.20;;;;;;5073869;28;19904;-79
2023/04/13 00:29:25;;;;;;;;;;;6.00;1.00;;;;;;5074273;28;19991;-79
2023/04/13 00:31:51;;;;;;;;;;;6.00;1.00;;;;;;5073645;28;19955;-79
2023/04/13 00:34:50;;;;;;;;;;;6.10;1.00;;;;;;5073910;28;19947;-79
2023/04/13 00:37:20;;;;;;;;;;;6.10;1.00;;;;;;5074126;28;19915;-76
2023/04/13 00:39:50;;;;;;;;;;;6.10;1.00;;;;;;5074246;28;20373;-77
2023/04/13 00:42:17;;;;;;;;;;;6.10;1.00;;;;;;5074062;28;19905;-77
2023/04/13 00:44:43;;;;;;;;;;;6.10;1.00;;;;;;5074031;28;19905;-76
2023/04/13 00:47:09;;;;;;;;;;;6.10;1.00;;;;;;5072058;28;20348;-76
2023/04/13 00:49:35;;;;;;;;;;;6.10;1.00;;;;;;5074070;28;19999;-76
2023/04/13 00:52:20;;;;;;;;;;;6.10;1.00;;;;;;5068022;28;19908;-79
2023/04/13 00:54:56;;;;;;;;;;;6.20;1.00;;;;;;5074758;28;20304;-80
2023/04/13 00:57:51;;;;;;;;;;;6.20;1.00;;;;;;5073708;28;19905;-79
2023/04/13 01:00:31;;;;;;;;;;;6.30;1.00;;;;;;5074045;28;19954;-79
2023/04/13 01:03:01;;;;;;;;;;;6.30;1.00;;;;;;5073167;28;19923;-79
2023/04/13 01:05:50;;;;;;;;;;;6.30;1.00;;;;;;5073895;28;19928;-79
2023/04/13 01:08:26;;;;;;;;;;;6.30;1.00;;;;;;5064463;28;19904;-79
2023/04/13 01:11:19;;;;;;;;;;;6.30;1.00;;;;;;5086862;28;19912;-79
2023/04/13 01:14:00;;;;;;;;;;;6.20;1.00;;;;;;5060472;28;19962;-80
2023/04/13 01:16:46;;;;;;;;;;;6.20;1.00;;;;;;5086303;28;19908;-79
2023/04/13 01:19:26;;;;;;;;;;;6.10;1.00;;;;;;5092906;28;19908;-79
2023/04/13 01:21:56;;;;;;;;;;;6.10;1.00;;;;;;5094289;28;19939;-77
2023/04/13 01:24:31;;;;;;;;;;;6.10;1.00;;;;;;5073607;28;19910;-77
2023/04/13 01:27:08;;;;;;;;;;;6.10;1.00;;;;;;5073404;28;19995;-77
2023/04/13 01:29:49;;;;;;;;;;;6.10;1.00;;;;;;5073680;28;19904;-77
2023/04/13 01:32:15;;;;;;;;;;;6.10;1.00;;;;;;5056683;28;19966;-78
2023/04/13 01:34:41;;;;;;;;;;;6.10;1.00;;;;;;5077110;28;19904;-77
2023/04/13 01:37:08;;;;;;;;;;;6.10;1.00;;;;;;5077038;28;20415;-79
2023/04/13 01:39:49;;;;;;;;;;;6.00;1.00;;;;;;5076893;28;19911;-79
2023/04/13 01:42:19;;;;;;;;;;;6.00;1.00;;;;;;5076633;28;19959;-80
2023/04/13 01:44:50;;;;;;;;;;;6.00;1.00;;;;;;5058932;28;19958;-79
2023/04/13 01:47:21;;;;;;;;;;;5.90;1.00;;;;;;5058742;28;19904;-79
2023/04/13 01:50:02;;;;;;;;;;;5.90;1.00;;;;;;5077018;28;20352;-79
2023/04/13 01:52:39;;;;;;;;;;;5.90;1.00;;;;;;5078726;28;20008;-77
2023/04/13 01:55:08;;;;;;;;;;;5.90;1.00;;;;;;5077196;28;19954;-78
2023/04/13 01:57:39;;;;;;;;;;;5.90;1.00;;;;;;5096516;28;19969;-77
2023/04/13 02:00:10;;;;;;;;;;;5.90;1.00;;;;;;5096890;28;19904;-77
2023/04/13 02:02:53;;;;;;;;;;;5.90;1.00;;;;;;5083100;28;19915;-77
2023/04/13 02:05:18;;;;;;;;;;;5.80;1.00;;;;;;5077043;28;19905;-77
2023/04/13 02:08:19;;;;;;;;;;;5.90;1.00;;;;;;5076562;28;19912;-77
2023/04/13 02:10:50;;;;;;;;;;;6.00;1.00;;;;;;5083630;28;20388;-77
2023/04/13 02:13:19;;;;;;;;;;;6.00;1.00;;;;;;5095656;28;20003;-77
2023/04/13 02:15:49;;;;;;;;;;;6.00;1.00;;;;;;5096395;28;19908;-77
2023/04/13 02:18:20;;;;;;;;;;;6.00;1.00;;;;;;5085645;28;19908;-77
2023/04/13 02:20:56;;;;;;;;;;;6.00;1.00;;;;;;5076419;28;19911;-77
2023/04/13 02:23:22;;;;;;;;;;;6.00;1.00;;;;;;5067316;28;19908;-80
2023/04/13 02:25:50;;;;;;;;;;;5.90;1.00;;;;;;5096025;28;19904;-80
2023/04/13 02:28:19;;;;;;;;;;;5.90;1.00;;;;;;5096337;28;19910;-79
2023/04/13 02:30:50;;;;;;;;;;;6.00;1.00;;;;;;5086195;28;19958;-79
2023/04/13 02:33:20;;;;;;;;;;;6.00;1.00;;;;;;5088816;28;19940;-80
2023/04/13 02:35:49;;;;;;;;;;;6.00;1.00;;;;;;5084258;28;19908;-79
2023/04/13 02:38:15;;;;;;;;;;;6.00;1.00;;;;;;5077309;28;19904;-76
2023/04/13 02:40:53;;;;;;;;;;;6.10;1.00;;;;;;5076199;28;19969;-76
2023/04/13 02:43:19;;;;;;;;;;;6.20;1.00;;;;;;5074787;28;19908;-76
2023/04/13 02:45:56;;;;;;;;;;;6.20;1.00;;;;;;5075725;28;19995;-76
2023/04/13 02:48:22;;;;;;;;;;;6.30;1.00;;;;;;5079569;28;19965;-76
2023/04/13 02:51:13;;;;;;;;;;;6.40;1.00;;;;;;5084377;28;20336;-76
2023/04/13 02:53:51;;;;;;;;;;;6.50;1.00;;;;;;5075854;28;19916;-76
2023/04/13 02:56:21;;;;;;;;;;;6.60;1.00;;;;;;5075687;28;20310;-76
2023/04/13 02:58:47;;;;;;;;;;;6.70;1.00;;;;;;5088508;28;20275;-77
2023/04/13 03:01:23;;;;;;;;;;;6.90;1.00;;;;;;5084802;28;19919;-76
2023/04/13 03:03:50;;;;;;;;;;;6.90;1.00;;;;;;5095553;28;20365;-76
2023/04/13 03:06:23;;;;;;;;;;;7.00;1.00;;;;;;5095667;28;19904;-78
2023/04/13 03:08:50;;;;;;;;;;;7.00;1.00;;;;;;5095828;28;20247;-76
2023/04/13 03:11:16;;;;;;;;;;;7.00;1.00;;;;;;5076937;28;19908;-76
2023/04/13 03:13:52;;;;;;;;;;;7.10;1.00;;;;;;5095932;28;19947;-76
2023/04/13 03:16:19;;;;;;;;;;;7.20;1.00;;;;;;5081054;28;19908;-76
2023/04/13 03:18:45;;;;;;;;;;;7.20;1.00;;;;;;5060697;28;19934;-76
2023/04/13 03:21:13;;;;;;;;;;;7.30;1.00;;;;;;5094917;28;19912;-76
2023/04/13 03:23:50;;;;;;;;;;;7.30;1.00;;;;;;5096300;28;19904;-79
2023/04/13 03:26:25;;;;;;;;;;;7.40;1.00;;;;;;5076891;28;19904;-79
2023/04/13 03:31:56;;;;;;;;;;;7.40;1.00;;;;;;5075370;28;19962;-80
2023/04/13 03:37:28;;;;;;;;;;;7.40;1.00;;;;;;5075122;28;19989;-87
2023/04/13 03:39:56;;;;;;;;;;;7.50;1.00;;;;;;5069543;28;19911;-88
2023/04/13 03:45:24;;;;;;;;;;;7.50;1.00;;;;;;5075004;28;19915;-88
2023/04/13 03:48:09;;;;;;;;;;;7.60;1.00;;;;;;5057359;28;19908;-88
2023/04/13 03:53:38;;;;;;;;;;;7.60;1.00;;;;;;5095263;28;19915;-86
2023/04/13 03:59:06;;;;;;;;;;;7.60;1.00;;;;;;5075010;28;19912;-87
2023/04/13 04:04:35;;;;;;;;;;;7.70;1.00;;;;;;5094550;28;19911;-85
2023/04/13 04:07:31;;;;;;;;;;;7.80;1.00;;;;;;5077203;28;19908;-86
2023/04/13 04:13:00;;;;;;;;;;;7.70;1.00;;;;;;5094798;28;19957;-89
2023/04/13 04:18:49;;;;;;;;;;;7.80;1.00;;;;;;5074699;28;20283;-88
2023/04/13 04:21:20;;;;;;;;;;;7.80;1.00;;;;;;5074406;28;19905;-89
2023/04/13 04:26:49;;;;;;;;;;;7.80;1.00;;;;;;5074491;28;20283;-88
2023/04/13 04:29:37;;;;;;;;;;;7.90;1.00;;;;;;5056902;28;19904;-88
2023/04/13 04:32:14;;;;;;;;;;;7.90;1.00;;;;;;5072991;28;19919;-88
2023/04/13 04:40:46;;;;;;;;;;;8.00;1.00;;;;;;5105563;28;20385;-87
2023/04/13 04:46:15;;;;;;;;;;;8.10;1.00;;;;;;5074433;28;20370;-87
2023/04/13 04:54:47;;;;;;;;;;;8.10;1.00;;;;;;5091804;28;19916;-91
2023/04/13 05:12:28;;;;;;;;;;;8.20;1.00;;;;;;5096411;28;19915;-90
2023/04/13 05:21:26;;;;;;;;;;;8.30;1.00;;;;;;5098101;28;19953;-92
2023/04/13 05:24:19;;;;;;;;;;;11.30;1.00;;;;;;5076387;28;19904;-84
2023/04/13 05:27:02;;;;;;;;;;;8.30;1.00;;;;;;5059119;28;20034;-83
2023/04/13 05:29:50;;;;;;;;;;;8.30;1.00;;;;;;5074382;28;19908;-83
2023/04/13 05:32:37;;;;;;;;;;;8.40;1.00;;;;;;5059146;28;19912;-83
2023/04/13 05:35:13;;;;;;;;;;;8.50;1.00;;;;;;5072553;28;19923;-83
2023/04/13 05:37:39;;;;;;;;;;;8.70;1.00;;;;;;5058919;28;19954;-83
2023/04/13 05:46:11;;;;;;;;;;;8.60;1.00;;;;;;5081886;28;19954;-91
2023/04/13 05:48:43;;;;;;;;;;;8.80;1.00;;;;;;5059008;28;19912;-89
2023/04/13 05:51:20;;;;;;;;;;;8.80;1.00;;;;;;5061666;28;19915;-89
2023/04/13 05:53:56;;;;;;;;;;;8.90;1.00;;;;;;5062383;28;19916;-91
2023/04/13 05:56:22;;;;;;;;;;;8.90;1.00;;;;;;5058334;28;19999;-84
2023/04/13 05:58:48;;;;;;;;;;;9.00;1.00;;;;;;5076605;28;20372;-84
2023/04/13 06:01:14;;;;;;;;;;;8.80;1.00;;;;;;5058102;28;20045;-84
2023/04/13 06:04:09;;;;;;;;;;;8.90;1.00;;;;;;5076219;28;19908;-84
2023/04/13 06:09:44;;;;;;;;;;;8.90;1.00;;;;;;5076538;28;19912;-85
2023/04/13 06:15:13;;;;;;;;;;;9.10;1.00;;;;;;5076214;28;19954;-84
2023/04/13 06:17:55;;;;;;;;;;;9.40;1.00;;;;;;5062045;28;19916;-84
2023/04/13 06:20:33;;;;;;;;;;;9.10;1.00;;;;;;5078546;28;20482;-83
2023/04/13 06:23:31;;;;;;;;;;;9.00;1.00;;;;;;5096467;28;19936;-85
2023/04/13 06:26:14;;;;;;;;;;;9.00;1.00;;;;;;5078764;28;19990;-85
2023/04/13 06:28:50;;;;;;;;;;;8.90;1.00;;;;;;5066115;28;19944;-85
2023/04/13 06:31:15;;;;;;;;;;;8.80;1.00;;;;;;5065227;28;19916;-84
2023/04/13 06:33:41;;;;;;;;;;;8.80;1.00;;;;;;5075477;28;19916;-85
2023/04/13 06:36:14;;;;;;;;;;;8.70;1.00;;;;;;5074013;28;20355;-84
2023/04/13 06:38:39;;;;;;;;;;;8.70;1.00;;;;;;5116632;28;19943;-84
2023/04/13 06:50:14;;;;;;;;;;;9.10;1.00;;;;;;5075980;28;19911;-90
2023/04/13 06:53:13;;;;;;;;;;;9.30;1.00;;;;;;5065068;28;19916;-91
2023/04/13 06:58:49;;;;;;;;;;;9.50;1.00;;;;;;5075498;28;19957;-84
2023/04/13 07:01:31;;;;;;;;;;;9.50;1.00;;;;;;5075240;28;19958;-84
2023/04/13 07:04:13;;;;;;;;;;;9.50;1.00;;;;;;5064251;28;19912;-86
2023/04/13 07:09:42;;;;;;;;;;;9.80;1.00;;;;;;5084066;28;20469;-88
2023/04/13 07:15:43;;;;;;;;;;;10.20;1.00;;;;;;5096012;28;20407;-90
2023/04/13 07:18:09;;;;;;;;;;;10.20;1.00;;;;;;5077043;28;20256;-92
2023/04/13 07:20:35;;;;;;;;;;;10.10;1.00;;;;;;5077178;28;19904;-91
2023/04/13 07:23:01;;;;;;;;;;;10.00;1.00;;;;;;5061303;28;19913;-92
2023/04/13 07:25:43;;;;;;;;;;;10.10;1.00;;;;;;5070114;28;20344;-91
2023/04/13 07:28:31;;;;;;;;;;;10.10;1.00;;;;;;5056982;28;19911;-91
2023/04/13 07:31:02;;;;;;;;;;;10.30;1.00;;;;;;5056652;28;19909;-91
2023/04/13 07:36:43;;;;;;;;;;;10.00;1.00;;;;;;5089995;28;20424;-91
2023/04/13 07:42:14;;;;;;;;;;;10.00;1.00;;;;;;5087328;28;19911;-92
2023/04/13 07:44:43;;;;;;;;;;;10.00;1.00;;;;;;5074019;28;19935;-88
2023/04/13 07:50:12;;;;;;;;;;;9.80;1.00;;;;;;5074087;28;20282;-91
2023/04/13 07:53:07;;;;;;;;;;;9.70;1.00;;;;;;5073964;28;19908;-91
2023/04/13 07:58:36;;;;;;;;;;;9.70;1.00;;;;;;5074443;28;19910;-89
2023/04/13 08:04:05;;;;;;;;;;;10.00;1.00;;;;;;5078443;28;19957;-90
2023/04/13 08:07:01;;;;;;;;;;;10.00;1.00;;;;;;5057265;28;19940;-89
2023/04/13 08:09:35;;;;;;;;;;;9.90;1.00;;;;;;5074323;28;19953;-73
2023/04/13 08:12:02;;;;;;;;;;;9.70;1.00;;;;;;5080371;28;19939;-88
2023/04/13 08:14:31;;;;;;;;;;;9.70;1.00;;;;;;5068615;28;19904;-86
2023/04/13 08:17:03;;;;;;;;;;;9.70;1.00;;;;;;5056747;28;19913;-86
2023/04/13 08:22:32;;;;;;;;;;;10.20;1.00;;;;;;5093464;28;19957;-87
2023/04/13 08:28:08;;;;;;;;;;;10.70;1.00;;;;;;5081177;28;20352;-86
2023/04/13 08:33:37;;;;;;;;;;;10.80;1.00;;;;;;5076252;28;19927;-87
2023/04/13 08:36:26;;;;;;;;;;;10.60;1.00;;;;;;5074312;28;20313;-86
2023/04/13 08:38:55;;;;;;;;;;;10.70;1.00;;;;;;5073914;28;19908;-85
2023/04/13 08:41:26;;;;;;;;;;;10.50;1.00;;;;;;5077172;28;19907;-88
2023/04/13 08:43:51;;;;;;;;;;;10.60;1.00;;;;;;5080241;28;20326;-85
2023/04/13 08:46:26;;;;;;;;;;;10.60;1.00;;;;;;5097948;28;19958;-85
2023/04/13 08:48:52;;;;;;;;;;;10.70;1.00;;;;;;5087909;28;19915;-86
2023/04/13 08:51:20;;;;;;;;;;;10.80;1.00;;;;;;5078148;28;19908;-85
2023/04/13 08:53:46;;;;;;;;;;;10.90;1.00;;;;;;5080114;28;19951;-87
2023/04/13 08:59:16;;;;;;;;;;;11.30;1.00;;;;;;5078032;28;19935;-86
2023/04/13 09:01:43;;;;;;;;;;;11.20;1.00;;;;;;5077912;28;19908;-86
2023/04/13 09:13:27;;;;;;;;;;;11.00;1.00;;;;;;5098427;28;19915;-92
2023/04/13 09:18:56;;;;;;;;;;;10.70;1.00;;;;;;5088626;28;19931;-92
2023/04/13 09:21:34;;;;;;;;;;;10.60;1.00;;;;;;5077378;28;20329;-90
2023/04/13 09:24:00;;;;;;;;;;;10.50;1.00;;;;;;5059789;28;19915;-74
2023/04/13 09:26:45;;;;;;;;;;;10.50;1.00;;;;;;5077739;28;19970;-75
2023/04/13 09:29:15;;;;;;;;;;;10.40;1.00;;;;;;5077342;28;19944;-75
2023/04/13 09:31:42;;;;;;;;;;;10.30;1.00;;;;;;5076750;28;19912;-75
2023/04/13 09:34:08;;;;;;;;;;;10.40;1.00;;;;;;5087877;28;19904;-75
2023/04/13 09:36:50;;;;;;;;;;;10.40;1.00;;;;;;5105101;28;19937;-75
2023/04/13 09:39:22;;;;;;;;;;;10.50;1.00;;;;;;5077026;28;19910;-75
2023/04/13 09:41:51;;;;;;;;;;;10.60;1.00;;;;;;5081025;28;19958;-75
2023/04/13 09:44:19;;;;;;;;;;;10.60;1.00;;;;;;5088523;28;19991;-75
2023/04/13 09:50:07;;;;;;;;;;;10.60;1.00;;;;;;5076646;28;19910;-76
2023/04/13 09:52:44;;;;;;;;;;;10.70;1.00;;;;;;5076144;28;19908;-75
2023/04/13 09:55:20;;;;;;;;;;;10.80;1.00;;;;;;5086855;28;19912;-74
2023/04/13 09:57:45;;;;;;;;;;;10.60;1.00;;;;;;5079540;28;19908;-75
2023/04/13 10:00:19;;;;;;;;;;;10.80;1.00;;;;;;5083599;28;19915;-75
2023/04/13 10:02:50;;;;;;;;;;;10.80;1.00;;;;;;5096992;28;19953;-75
2023/04/13 10:05:20;;;;;;;;;;;11.10;1.00;;;;;;5097188;28;19947;-75
2023/04/13 10:07:46;;;;;;;;;;;11.20;1.00;;;;;;5095772;28;19911;-75
2023/04/13 10:10:14;;;;;;;;;;;11.20;1.00;;;;;;5078554;28;20369;-75
2023/04/13 10:12:42;;;;;;;;;;;11.20;1.00;;;;;;5077814;28;20374;-75
2023/04/13 10:15:16;;;;;;;;;;;11.30;1.00;;;;;;5076468;28;19912;-75
2023/04/13 10:17:52;;;;;;;;;;;11.30;1.00;;;;;;5078311;28;19913;-75
2023/04/13 10:20:27;;;;;;;;;;;11.30;1.00;;;;;;5080578;28;19909;-75
2023/04/13 10:22:53;;;;;;;;;;;11.40;1.00;;;;;;5077125;28;20371;-74
2023/04/13 10:25:26;;;;;;;;;;;11.50;1.00;;;;;;5076755;28;19916;-75
2023/04/13 10:27:57;;;;;;;;;;;11.50;1.00;;;;;;5078605;28;20371;-75
2023/04/13 10:30:26;;;;;;;;;;;11.40;1.00;;;;;;5075710;28;19911;-74
2023/04/13 10:35:56;;;;;;;;;;;11.30;1.00;;;;;;5075795;28;20014;-75
2023/04/13 10:38:21;;;;;;;;;;;11.10;1.00;;;;;;5075002;28;20332;-75
2023/04/13 10:40:47;;;;;;;;;;;11.00;1.00;;;;;;5075087;28;19905;-75
2023/04/13 10:43:33;;;;;;;;;;;11.20;1.00;;;;;;5075212;28;19995;-74
2023/04/13 10:46:09;;;;;;;;;;;10.90;1.00;;;;;;5075851;28;19908;-74
2023/04/13 10:48:35;;;;;;;;;;;11.00;1.00;;;;;;5094148;28;19930;-74
2023/04/13 10:51:00;;;;;;;;;;;11.10;1.00;;;;;;5094893;28;19908;-75
2023/04/13 10:53:29;;;;;;;;;;;11.30;1.00;;;;;;5080820;28;19944;-75
2023/04/13 10:55:55;;;;;;;;;;;11.50;1.00;;;;;;5073390;28;19909;-75
2023/04/13 10:58:21;;;;;;;;;;;11.70;1.00;;;;;;5073743;28;20264;-75
2023/04/13 11:00:48;;;;;;;;;;;11.90;1.00;;;;;;5074356;28;19908;-75
2023/04/13 11:03:14;;;;;;;;;;;11.90;1.00;;;;;;5074335;28;19904;-76
2023/04/13 11:05:40;;;;;;;;;;;12.20;1.00;;;;;;5055510;28;19908;-76
2023/04/13 11:08:05;;;;;;;;;;;12.30;1.00;;;;;;5074964;28;19909;-74
2023/04/13 11:10:31;;;;;;;;;;;12.20;1.00;;;;;;5074259;28;19908;-74
2023/04/13 11:12:57;;;;;;;;;;;12.30;1.00;;;;;;5074380;28;19915;-75
2023/04/13 11:15:26;;;;;;;;;;;12.60;1.00;;;;;;5074136;28;19909;-75
2023/04/13 11:17:59;;;;;;;;;;;13.00;1.00;;;;;;5056166;28;19908;-75
2023/04/13 11:20:35;;;;;;;;;;;13.10;1.00;;;;;;5073998;28;19958;-75
2023/04/13 11:23:02;;;;;;;;;;;13.00;1.00;;;;;;5073908;28;20006;-75
2023/04/13 11:25:29;;;;;;;;;;;13.30;1.00;;;;;;5073962;28;19905;-75
2023/04/13 11:27:55;;;;;;;;;;;13.30;1.00;;;;;;5075626;28;19969;-76
2023/04/13 11:30:21;;;;;;;;;;;13.70;1.00;;;;;;5073792;28;19944;-74
2023/04/13 11:32:49;;;;;;;;;;;13.20;1.00;;;;;;5073948;28;19948;-75
2023/04/13 11:35:14;;;;;;;;;;;13.00;1.00;;;;;;5073631;28;20330;-75
2023/04/13 11:37:41;;;;;;;;;;;12.80;1.00;;;;;;5086051;28;19911;-76
2023/04/13 11:40:29;;;;;;;;;;;12.70;1.00;;;;;;5055563;28;19909;-74
2023/04/13 11:42:54;;;;;;;;;;;12.60;1.00;;;;;;5076239;28;19907;-73
2023/04/13 11:45:21;;;;;;;;;;;12.50;1.00;;;;;;5072247;28;19931;-73
2023/04/13 11:47:56;;;;;;;;;;;12.30;1.00;;;;;;5074576;28;20034;-73
2023/04/13 11:50:22;;;;;;;;;;;12.20;1.00;;;;;;5092962;28;19908;-75
2023/04/13 11:52:50;;;;;;;;;;;12.30;1.00;;;;;;5092392;28;20011;-75
2023/04/13 11:55:38;;;;;;;;;;;12.50;1.00;;;;;;5076416;28;20252;-77
2023/04/13 11:58:08;;;;;;;;;;;12.50;1.00;;;;;;5085615;28;19939;-77
2023/04/13 12:00:38;;;;;;;;;;;12.60;1.00;;;;;;5094338;28;20347;-76
2023/04/13 12:03:10;;;;;;;;;;;12.30;1.00;;;;;;5059788;28;20347;-76
2023/04/13 12:05:36;;;;;;;;;;;12.40;1.00;;;;;;5080528;28;19991;-75
2023/04/13 12:08:02;;;;;;;;;;;12.50;1.00;;;;;;5094172;28;20319;-78
2023/04/13 12:10:35;;;;;;;;;;;12.70;1.00;;;;;;5092800;28;19908;-76
2023/04/13 12:13:05;;;;;;;;;;;13.00;1.00;;;;;;5083806;28;19912;-75
2023/04/13 12:15:39;;;;;;;;;;;12.90;1.00;;;;;;5076104;28;19909;-75
2023/04/13 12:18:11;;;;;;;;;;;13.00;1.00;;;;;;5093281;28;19957;-76
2023/04/13 12:20:38;;;;;;;;;;;12.80;1.00;;;;;;5076375;28;20292;-75
2023/04/13 12:23:23;;;;;;;;;;;12.80;1.00;;;;;;5058181;28;20247;-76
2023/04/13 12:25:56;;;;;;;;;;;12.80;1.00;;;;;;5073665;28;20291;-76
2023/04/13 12:28:32;;;;;;;;;;;12.90;1.00;;;;;;5094038;28;19904;-77
2023/04/13 12:31:01;;;;;;;;;;;12.90;1.00;;;;;;5079515;28;20275;-75
2023/04/13 12:33:27;;;;;;;;;;;12.80;1.00;;;;;;5080815;28;19916;-75
2023/04/13 12:35:52;;;;;;;;;;;13.20;1.00;;;;;;5077792;28;20014;-76
2023/04/13 12:38:20;;;;;;;;;;;13.60;1.00;;;;;;5090270;28;19908;-75
2023/04/13 12:40:56;;;;;;;;;;;14.00;1.00;;;;;;5072116;28;20359;-75
2023/04/13 12:43:22;;;;;;;;;;;14.40;1.00;;;;;;5074721;28;19908;-76
2023/04/13 12:45:48;;;;;;;;;;;14.60;1.00;;;;;;5073375;28;20382;-76
2023/04/13 12:48:14;;;;;;;;;;;15.00;1.00;;;;;;5079965;28;19904;-76
2023/04/13 12:50:39;;;;;;;;;;;15.10;1.00;;;;;;5093184;28;19904;-75
2023/04/13 12:53:05;;;;;;;;;;;15.00;1.00;;;;;;5075018;28;19912;-75
2023/04/13 12:55:44;;;;;;;;;;;15.20;1.00;;;;;;5073039;28;19964;-75
2023/04/13 12:58:20;;;;;;;;;;;14.90;1.00;;;;;;5074220;28;19904;-76
2023/04/13 13:00:56;;;;;;;;;;;14.90;1.00;;;;;;5073724;28;19991;-75
2023/04/13 13:03:22;;;;;;;;;;;14.90;1.00;;;;;;5073812;28;19909;-75
2023/04/13 13:05:48;;;;;;;;;;;14.70;1.00;;;;;;5073769;28;19965;-75
2023/04/13 13:08:13;;;;;;;;;;;14.50;1.00;;;;;;5072896;28;19992;-76
2023/04/13 13:10:39;;;;;;;;;;;14.80;1.00;;;;;;5072589;28;20379;-76
2023/04/13 13:13:05;;;;;;;;;;;14.40;1.00;;;;;;5072754;28;19948;-76
2023/04/13 13:15:31;;;;;;;;;;;14.00;1.00;;;;;;5073198;28;19913;-76
2023/04/13 13:18:03;;;;;;;;;;;14.10;1.00;;;;;;5072759;28;19908;-76
2023/04/13 13:20:29;;;;;;;;;;;12.80;1.00;;;;;;5072467;28;19905;-73
2023/04/13 13:22:54;;;;;;;;;;;12.50;1.00;;;;;;5081528;28;19915;-74
2023/04/13 13:25:20;;;;;;;;;;;12.30;1.00;;;;;;5064148;28;19908;-74
2023/04/13 13:27:46;;;;;;;;;;;11.80;1.00;;;;;;5074077;28;19905;-74
2023/04/13 13:30:14;;;;;;;;;;;11.50;1.00;;;;;;5077525;28;19962;-74
2023/04/13 13:32:39;;;;;;;;;;;11.40;1.00;;;;;;5077505;28;19966;-74
2023/04/13 13:35:07;;;;;;;;;;;11.30;1.00;;;;;;5076954;28;20287;-74
2023/04/13 13:37:32;;;;;;;;;;;11.10;1.00;;;;;;5091710;28;20312;-74
2023/04/13 13:40:00;;;;;;;;;;;10.90;1.00;;;;;;5117793;28;19904;-74
2023/04/13 13:42:25;;;;;;;;;;;10.70;1.00;;;;;;5101472;28;20352;-75
2023/04/13 13:45:02;;;;;;;;;;;10.50;1.00;;;;;;5069451;28;19912;-75
2023/04/13 13:47:46;;;;;;;;;;;10.50;1.00;;;;;;5077094;28;19938;-75
2023/04/13 13:50:12;;;;;;;;;;;10.40;1.00;;;;;;5076810;28;20376;-75
2023/04/13 13:52:44;;;;;;;;;;;10.40;1.00;;;;;;5077648;28;19908;-76
2023/04/13 13:55:26;;;;;;;;;;;10.30;1.00;;;;;;5084514;28;19916;-76
2023/04/13 13:58:02;;;;;;;;;;;10.40;1.00;;;;;;5081137;28;19912;-76
2023/04/13 14:03:31;;;;;;;;;;;10.50;1.00;;;;;;5077383;28;19912;-90
2023/04/13 14:12:00;;;;;;;;;;;10.90;1.00;;;;;;5076723;28;19911;-89
2023/04/13 14:14:32;;;;;;;;;;;11.10;1.00;;;;;;5076768;28;19991;-90
2023/04/13 14:16:58;;;;;;;;;;;11.30;1.00;;;;;;5076621;28;19919;-81
2023/04/13 14:19:38;;;;;;;;;;;11.60;1.00;;;;;;5076164;28;19965;-81
2023/04/13 14:22:08;;;;;;;;;;;11.90;1.00;;;;;;5076229;28;19912;-81
2023/04/13 14:24:38;;;;;;;;;;;12.50;1.00;;;;;;5072921;28;19915;-82
2023/04/13 14:27:20;;;;;;;;;;;13.20;1.00;;;;;;5078011;28;19908;-82
2023/04/13 14:29:50;;;;;;;;;;;13.60;1.00;;;;;;5077516;28;19911;-82
2023/04/13 14:32:15;;;;;;;;;;;14.00;1.00;;;;;;5084760;28;19912;-86
2023/04/13 14:41:08;;;;;;;;;;;15.50;1.00;;;;;;5094810;28;19915;-87
2023/04/13 14:46:36;;;;;;;;;;;16.80;1.00;;;;;;5076255;28;19910;-85
2023/04/13 14:52:04;;;;;;;;;;;17.50;1.00;;;;;;5075672;28;20365;-88
2023/04/13 14:57:33;;;;;;;;;;;17.90;1.00;;;;;;5075963;28;20318;-86
2023/04/13 15:03:01;;;;;;;;;;;18.90;1.00;;;;;;5083804;28;19959;-86
2023/04/13 15:05:27;;;;;;;;;;;18.80;1.00;;;;;;5061262;28;19955;-89
2023/04/13 15:11:32;;;;;;;;;;;18.70;1.00;;;;;;5075639;28;20279;-89
2023/04/13 15:14:31;;;;;;;;;;;18.30;1.00;;;;;;5058480;28;19912;-90
2023/04/13 15:16:57;;;;;;;;;;;17.70;1.00;;;;;;5058909;28;19968;-90
2023/04/13 15:31:35;;;;;;;;;;;15.70;1.00;;;;;;5075817;28;20362;-87
2023/04/13 15:37:04;;;;;;;;;;;14.60;1.00;;;;;;5075053;28;19967;-90
2023/04/13 15:39:44;;;;;;;;;;;14.30;1.00;;;;;;5074877;28;19948;-91
2023/04/13 15:45:12;;;;;;;;;;;13.30;1.00;;;;;;5090476;28;20006;-94
2023/04/13 15:50:41;;;;;;;;;;;12.70;1.00;;;;;;5074746;28;19938;-92
2023/04/13 16:02:15;;;;;;;;;;;11.80;1.00;;;;;;5082897;28;19919;-82
2023/04/13 16:04:44;;;;;;;;;;;11.70;1.00;;;;;;5056139;28;19912;-81
2023/04/13 16:07:20;;;;;;;;;;;11.70;1.00;;;;;;5075878;28;19908;-81
2023/04/13 16:09:54;;;;;;;;;;;11.70;1.00;;;;;;5091846;28;19904;-82
2023/04/13 16:12:30;;;;;;;;;;;11.60;1.00;;;;;;5063659;28;19975;-84
2023/04/13 16:15:11;;;;;;;;;;;11.60;1.00;;;;;;5087218;28;19909;-84
2023/04/13 16:17:39;;;;;;;;;;;11.70;1.00;;;;;;5067236;28;19912;-83
2023/04/13 16:20:16;;;;;;;;;;;11.90;1.00;;;;;;5075056;28;19904;-82
2023/04/13 16:22:53;;;;;;;;;;;12.20;1.00;;;;;;5093743;28;19934;-83
2023/04/13 16:25:19;;;;;;;;;;;12.50;1.00;;;;;;5060015;28;20286;-82
2023/04/13 16:27:46;;;;;;;;;;;12.80;1.00;;;;;;5078823;28;19920;-83
2023/04/13 16:30:26;;;;;;;;;;;13.00;1.00;;;;;;5083334;28;19904;-82
2023/04/13 16:33:14;;;;;;;;;;;13.20;1.00;;;;;;5087032;28;19916;-81
2023/04/13 16:36:08;;;;;;;;;;;13.50;1.00;;;;;;5069398;28;20006;-82
2023/04/13 16:38:34;;;;;;;;;;;13.90;1.00;;;;;;5067335;28;19919;-83
2023/04/13 16:40:59;;;;;;;;;;;14.30;1.00;;;;;;5091584;28;19948;-83
2023/04/13 16:43:44;;;;;;;;;;;14.50;1.00;;;;;;5069650;28;19956;-83
2023/04/13 16:46:13;;;;;;;;;;;14.70;1.00;;;;;;5083350;28;19909;-82
2023/04/13 16:48:39;;;;;;;;;;;14.80;1.00;;;;;;5081466;28;19919;-81
2023/04/13 16:51:14;;;;;;;;;;;14.80;1.00;;;;;;5091592;28;19916;-82
2023/04/13 16:53:42;;;;;;;;;;;14.80;1.00;;;;;;5057961;28;20382;-81
2023/04/13 16:56:14;;;;;;;;;;;14.60;1.00;;;;;;5076847;28;19962;-82
2023/04/13 16:58:50;;;;;;;;;;;14.50;1.00;;;;;;5064014;28;19908;-82
2023/04/13 17:01:20;;;;;;;;;;;14.30;1.00;;;;;;5073464;28;19908;-80
2023/04/13 17:03:56;;;;;;;;;;;14.10;1.00;;;;;;5081706;28;19960;-77
2023/04/13 17:06:26;;;;;;;;;;;13.90;1.00;;;;;;5097727;28;19908;-81
2023/04/13 17:11:55;;;;;;;;;;;13.50;1.00;;;;;;5097619;28;19964;-81
2023/04/13 17:14:32;;;;;;;;;;;13.30;1.00;;;;;;5097539;28;19904;-81
2023/04/13 17:16:57;;;;;;;;;;;13.10;1.00;;;;;;5097732;28;19912;-80
2023/04/13 17:19:23;;;;;;;;;;;13.00;1.00;;;;;;5077376;28;19904;-80
2023/04/13 17:21:50;;;;;;;;;;;12.90;1.00;;;;;;5059975;28;20386;-80
2023/04/13 17:24:20;;;;;;;;;;;12.70;1.00;;;;;;5097096;28;19904;-80
2023/04/13 17:27:02;;;;;;;;;;;12.40;1.00;;;;;;5065425;28;20385;-80
2023/04/13 17:29:38;;;;;;;;;;;12.30;1.00;;;;;;5059125;28;19904;-80
2023/04/13 17:32:26;;;;;;;;;;;12.10;1.00;;;;;;5059016;28;19953;-80
2023/04/13 17:34:56;;;;;;;;;;;11.80;1.00;;;;;;5059034;28;19915;-80
2023/04/13 17:37:38;;;;;;;;;;;11.40;1.00;;;;;;5064087;28;19915;-80
2023/04/13 17:40:08;;;;;;;;;;;11.30;1.00;;;;;;5087041;28;20305;-81
2023/04/13 17:42:34;;;;;;;;;;;11.10;1.00;;;;;;5088365;28;19908;-81
2023/04/13 17:45:00;;;;;;;;;;;10.90;1.00;;;;;;5072715;28;19916;-81
2023/04/13 17:47:26;;;;;;;;;;;10.90;1.00;;;;;;5093698;28;19934;-81
2023/04/13 17:49:52;;;;;;;;;;;10.70;1.00;;;;;;5070552;28;19919;-81
2023/04/13 17:52:35;;;;;;;;;;;10.70;1.00;;;;;;5073293;28;20298;-81
2023/04/13 17:55:02;;;;;;;;;;;10.60;1.00;;;;;;5073558;28;19999;-81
2023/04/13 17:57:28;;;;;;;;;;;10.60;1.00;;;;;;5084934;28;19915;-81
2023/04/13 18:00:02;;;;;;;;;;;10.60;1.00;;;;;;5068082;28;19904;-81
2023/04/13 18:02:32;;;;;;;;;;;10.50;1.00;;;;;;5089459;28;19908;-81
2023/04/13 18:05:26;;;;;;;;;;;10.50;1.00;;;;;;5064517;28;19908;-80
2023/04/13 18:07:52;;;;;;;;;;;10.40;1.00;;;;;;5073424;28;20286;-87
2023/04/13 18:10:26;;;;;;;;;;;10.30;1.00;;;;;;5073799;28;19908;-81
2023/04/13 18:13:02;;;;;;;;;;;10.30;1.00;;;;;;5082388;28;20389;-82
2023/04/13 18:15:28;;;;;;;;;;;10.20;1.00;;;;;;5086998;28;19908;-86
2023/04/13 18:21:26;;;;;;;;;;;10.00;1.00;;;;;;5083262;28;19911;-87
2023/04/13 18:24:02;;;;;;;;;;;9.90;1.00;;;;;;5071278;28;19958;-80
2023/04/13 18:26:32;;;;;;;;;;;9.70;1.00;;;;;;5068400;28;20382;-80
2023/04/13 18:29:20;;;;;;;;;;;9.60;1.00;;;;;;5081969;28;19912;-80
2023/04/13 18:31:56;;;;;;;;;;;9.50;1.00;;;;;;5061821;28;19911;-79
2023/04/13 18:34:22;;;;;;;;;;;9.40;1.00;;;;;;5060349;28;19916;-79